Monday, January 21, 2019, 10:35 PM GMT
Back to Local

CYHU, Saint Hubert Airport

Location: , , Canada Lat: 45.517
Local Time: 10:35 PM GMT (22:35 GMT) Lon: -73.417
Time Zone: GMT Elev: 88 ft

Show me the last for .
Show Decoded

2019-01-21 22:00 METAR CYHU 212200Z AUTO 28015G23KT 9SM BKN090 OVC110 M17/M23 A3008 RMK PRESRR
                 SLP191 =
2019-01-21 21:13 METAR CYHU 212113Z AUTO 28015G23KT 8SM OVC075 M17/M23 A3005 RMK SLP178 =
2019-01-21 21:03 METAR CYHU 212103Z AUTO 28014G22KT 7SM -SN OVC075 M17/M24 A3004 RMK SLP177 =
2019-01-21 21:00 METAR CYHU 212100Z AUTO 28017G22KT 8SM OVC075 M17/M24 A3004 RMK SLP176 =
2019-01-21 20:00 METAR CYHU 212000Z AUTO 27017G22KT 8SM OVC045 M17/M23 A3000 RMK SLP162 =
2019-01-21 19:56 METAR CYHU 211956Z AUTO 27017G22KT 6SM HZ BKN045 OVC050 M17/M23 A3000 RMK SLP162
                 =
2019-01-21 19:49 METAR CYHU 211949Z AUTO 27015G22KT 5SM HZ OVC042 M17/M23 A2999 RMK SLP161 =
2019-01-21 19:42 METAR CYHU 211942Z AUTO 27016G22KT 3SM -SN OVC040 M17/M23 A2999 RMK SLP159 =
2019-01-21 19:27 METAR CYHU 211927Z AUTO 27016G21KT 2SM -SN OVC040 M17/M22 A2998 RMK SLP157 =
2019-01-21 19:00 METAR CYHU 211900Z AUTO 27013G19KT 1 3/4SM -SN OVC038 M18/M22 A2998 RMK SLP156 =
2019-01-21 18:23 METAR CYHU 211823Z AUTO 27015G20KT 1 3/4SM -SN OVC038 M18/M22 A2997 RMK SLP153 =
2019-01-21 18:00 METAR CYHU 211800Z AUTO 27015G22KT 2SM -SN BKN036 OVC044 M19/M22 A2997 RMK
                 SLP153 =
2019-01-21 17:33 METAR CYHU 211733Z AUTO 27016KT 2SM -SN OVC036 M19/M23 A2997 RMK SLP153 =
2019-01-21 17:00 METAR CYHU 211700Z AUTO 27017KT 1 3/4SM -SN OVC038 M19/M23 A2996 RMK SLP152 =
2019-01-21 16:00 METAR CYHU 211600Z AUTO 27013G21KT 1 1/2SM -SN OVC039 M20/M23 A2997 RMK SLP153 =
2019-01-21 15:41 METAR CYHU 211541Z AUTO 27015G20KT 1 3/4SM -SN OVC041 M20/M24 A2996 RMK SLP150 =
2019-01-21 15:28 METAR CYHU 211528Z AUTO 28011G19KT 2SM -SN OVC041 M20/M23 A2996 RMK SLP150 =
2019-01-21 15:00 METAR CYHU 211500Z AUTO 27015KT 1 3/4SM -SN OVC039 M20/M24 A2994 RMK PRESRR
                 SLP145 =
2019-01-21 14:56 METAR CYHU 211456Z AUTO 27014G19KT 1 3/4SM -SN OVC039 M20/M24 A2994 RMK SLP143 =
2019-01-21 14:29 METAR CYHU 211429Z AUTO 28011G17KT 2 1/2SM -SN FEW038 OVC046 M20/M24 A2993 RMK
                 SLP138 =
2019-01-21 14:02 METAR CYHU 211402Z AUTO 28012KT 1 3/4SM -SN OVC042 M20/M24 A2991 RMK SLP134 =
2019-01-21 14:00 METAR CYHU 211400Z AUTO 28011G16KT 2SM -SN OVC042 M20/M24 A2991 RMK SLP134 =
2019-01-21 13:58 METAR CYHU 211358Z AUTO 27012KT 2SM -SN OVC042 M20/M24 A2991 RMK SLP134 =
2019-01-21 13:57 METAR CYHU 211357Z AUTO 27013KT 1 1/2SM -SN OVC042 M20/M24 A2991 RMK SLP134 =
2019-01-21 13:56 METAR CYHU 211356Z AUTO 27013KT 2 1/4SM -SN OVC042 M20/M24 A2991 RMK SLP133 =
2019-01-21 13:40 METAR CYHU 211340Z AUTO 27013KT 1 1/4SM -SN OVC046 M20/M24 A2991 RMK SLP131 =
2019-01-21 13:12 METAR CYHU 211312Z AUTO 27011G18KT 3SM -SN OVC038 M20/M24 A2990 RMK SLP128 =
2019-01-21 13:00 METAR CYHU 211300Z AUTO 28012G17KT 2 1/4SM -SN OVC034 M20/M24 A2990 RMK SLP128 =
2019-01-21 12:52 METAR CYHU 211252Z AUTO 26010G15KT 2SM -SN OVC032 M21/M24 A2989 RMK SLP127 =
2019-01-21 12:45 METAR CYHU 211245Z AUTO 27012KT 1 3/4SM -SN OVC028 M21/M24 A2989 RMK SLP125 =
2019-01-21 12:36 METAR CYHU 211236Z AUTO 27011G16KT 2SM -SN OVC028 M21/M24 A2989 RMK SLP125 =
2019-01-21 12:18 METAR CYHU 211218Z AUTO 27014KT 1 3/4SM -SN OVC030 M21/M24 A2988 RMK VIS VRB 1
                 1/4-2 1/4 SLP122 =
2019-01-21 12:13 METAR CYHU 211213Z AUTO 27012G18KT 2SM -SN OVC032 M21/M24 A2988 RMK SLP122 =
2019-01-21 12:00 METAR CYHU 211200Z AUTO 27015KT 1 3/4SM -SN OVC034 M21/M24 A2987 RMK SLP120 =
2019-01-21 11:51 METAR CYHU 211151Z AUTO 27013G19KT 1 3/4SM -SN OVC034 M21/M24 A2987 RMK SLP118 =
2019-01-21 11:43 METAR CYHU 211143Z AUTO 27014KT 2SM -SN OVC036 M21/M24 A2987 RMK SLP118 =
2019-01-21 11:29 METAR CYHU 211129Z AUTO 27014KT 1 3/4SM -SN OVC040 M20/M24 A2986 RMK VIS VRB 1
                 1/4-2 1/2 SLP117 =
2019-01-21 11:22 METAR CYHU 211122Z AUTO 26012KT 2 1/2SM -SN OVC040 M20/M24 A2987 RMK VIS VRB 1
                 1/2-3 SLP118 =
2019-01-21 11:00 METAR CYHU 211100Z AUTO 27010G16KT 3SM -SN OVC046 M20/M24 A2986 RMK SLP117 =
2019-01-21 10:20 METAR CYHU 211020Z AUTO 27010G15KT 3SM -SN BKN055 OVC070 M20/M24 A2986 RMK
                 SLP116 =
2019-01-21 10:11 METAR CYHU 211011Z AUTO 28009KT 2 1/2SM -SN OVC060 M20/M24 A2987 RMK SLP118 =
2019-01-21 10:00 METAR CYHU 211000Z AUTO 27010KT 3SM -SN OVC060 M20/M24 A2987 RMK SLP118 =
2019-01-21 09:00 METAR CYHU 210900Z AUTO 30010G17KT 3SM -SN OVC042 M20/M24 A2985 RMK SLP113 =
2019-01-21 08:41 METAR CYHU 210841Z AUTO 30011KT 3SM -SN OVC044 M20/M23 A2985 RMK SLP111 =
2019-01-21 08:33 METAR CYHU 210833Z AUTO 30009KT 2 1/2SM -SN FEW025 OVC044 M19/M23 A2985 RMK VIS
                 VRB 1 1/4-3 SLP111 =
2019-01-21 08:00 METAR CYHU 210800Z AUTO 30010G15KT 3SM -SN OVC044 M19/M23 A2984 RMK SLP109 =
2019-01-21 07:54 METAR CYHU 210754Z AUTO 30008G15KT 3SM -SN OVC042 M19/M23 A2984 RMK SLP110 =
2019-01-21 07:42 METAR CYHU 210742Z AUTO 29009KT 2 1/2SM -SN OVC040 M19/M23 A2984 RMK SLP109 =
2019-01-21 07:32 METAR CYHU 210732Z AUTO 30008KT 1 1/2SM -SN OVC040 M19/M23 A2984 RMK SLP109 =
2019-01-21 07:00 METAR CYHU 210700Z AUTO 31011G16KT 2SM -SN OVC042 M19/M23 A2983 RMK SLP105 =
2019-01-21 06:46 METAR CYHU 210646Z AUTO 31010G15KT 2 1/2SM -SN OVC042 M19/M23 A2983 RMK SLP104 =
2019-01-21 06:00 METAR CYHU 210600Z AUTO 32011KT 3SM -SN FEW025 OVC040 M19/M23 A2982 RMK SLP101 =
2019-01-21 05:15 METAR CYHU 210515Z AUTO 32012G18KT 3SM -SN OVC055 M19/M23 A2980 RMK SLP096 =
2019-01-21 05:06 METAR CYHU 210506Z AUTO 32012G18KT 2 1/4SM -SN OVC055 M19/M23 A2980 RMK SLP095 =
2019-01-21 05:00 METAR CYHU 210500Z AUTO 32013KT 4SM -SN OVC060 M19/M23 A2980 RMK SLP094 =
2019-01-21 04:47 METAR CYHU 210447Z AUTO 32011G18KT 5SM -SN BKN060 BKN076 OVC096 M19/M23 A2980
                 RMK SLP094 =
2019-01-21 04:34 METAR CYHU 210434Z AUTO 31011KT 6SM -SN FEW060 SCT073 OVC096 M19/M23 A2979 RMK
                 SLP093 =
2019-01-21 04:12 METAR CYHU 210412Z AUTO 31010KT 5SM -SN SCT075 OVC096 M19/M23 A2979 RMK SLP093 =
2019-01-21 04:04 METAR CYHU 210404Z AUTO 32009G15KT 6SM -SN FEW049 SCT070 OVC096 M19/M23 A2980
                 RMK SLP094 =
2019-01-21 04:00 METAR CYHU 210400Z AUTO 32010G16KT 5SM -SN FEW049 OVC095 M19/M23 A2980 RMK
                 SLP094 =
2019-01-21 03:43 METAR CYHU 210343Z AUTO 32013KT 4SM -SN SCT047 OVC095 M19/M23 A2979 RMK SLP092 =
2019-01-21 03:00 METAR CYHU 210300Z AUTO 33010G19KT 9SM -SN FEW070 OVC095 M19/M23 A2980 RMK
                 SLP094 =
2019-01-21 02:44 METAR CYHU 210244Z AUTO 33011G20KT 6SM -SN FEW065 OVC095 M19/M23 A2980 RMK
                 SLP094 =
2019-01-21 02:07 METAR CYHU 210207Z AUTO 34009G15KT 3SM -SN OVC036 M19/M23 A2979 RMK SLP092 =
2019-01-21 02:05 METAR CYHU 210205Z AUTO 33009G16KT 2SM -SN OVC036 M19/M23 A2979 RMK VIS VRB 1-3
                 SLP092 =
2019-01-21 02:00 METAR CYHU 210200Z AUTO 33012G19KT 1 1/2SM -SN OVC036 M19/M22 A2979 RMK VIS VRB
                 1-3 SLP091 =
2019-01-21 01:55 METAR CYHU 210155Z AUTO 33013G19KT 1 3/4SM -SN OVC036 M19/M22 A2979 RMK SLP093 =
2019-01-21 01:49 METAR CYHU 210149Z AUTO 33014KT 2 1/2SM -SN OVC038 M19/M22 A2978 RMK SLP090 =
2019-01-21 01:01 METAR CYHU 210101Z AUTO 33012KT 5SM -SN SCT039 BKN060 OVC094 M18/M22 A2979 RMK
                 SLP091 =
2019-01-21 01:00 METAR CYHU 210100Z AUTO 33011KT 6SM -SN SCT039 BKN060 OVC094 M18/M22 A2979 RMK
                 SLP091 =
2019-01-21 00:00 METAR CYHU 210000Z AUTO 33009G17KT 9SM -SN FEW031 OVC055 M18/M21 A2979 RMK
                 SLP091 =
2019-01-20 23:46 METAR CYHU 202346Z AUTO 34012G18KT 6SM -SN BKN026 BKN055 OVC092 M18/M21 A2979
                 RMK SLP091 =
2019-01-20 23:43 METAR CYHU 202343Z AUTO 34013G18KT 5SM -SN BKN026 BKN055 OVC092 M18/M21 A2978
                 RMK PRESRR SLP090 =
2019-01-20 23:35 METAR CYHU 202335Z AUTO 34013G21KT 3SM -SN BKN024 OVC055 M18/M21 A2978 RMK
                 SLP088 =
2019-01-20 23:28 METAR CYHU 202328Z AUTO 33014G19KT 2 1/2SM -SN OVC024 M18/M21 A2977 RMK SLP085 =
2019-01-20 23:13 METAR CYHU 202313Z AUTO 34015G20KT 2 1/4SM -SN OVC030 M18/M21 A2977 RMK VIS VRB
                 1 1/2-3 SLP085 =
2019-01-20 23:00 METAR CYHU 202300Z AUTO 34015KT 3SM -SN OVC028 M18/M21 A2976 RMK SLP081 =
2019-01-20 22:59 METAR CYHU 202259Z AUTO 33013G19KT 3SM -SN OVC028 M18/M21 A2976 RMK SLP081 =
2019-01-20 22:48 METAR CYHU 202248Z AUTO 35014G19KT 2 1/4SM -SN OVC026 M17/M20 A2975 RMK VIS VRB
                 2-2 1/2 PRESRR SLP079 =
2019-01-20 22:36 METAR CYHU 202236Z AUTO 35011G17KT 2SM -SN OVC022 M17/M20 A2974 RMK SLP076 =

Support USWX by starting your Amazon purchase here.